Time;durP1;ratioP1;P1;durP2;ratioP2;P2;SDS_P1;SDS_P2;PMS_P1;PMS_P2;Temp;Humidity;BMP_temperature;BMP_pressure;BME280_temperature;BME280_humidity;BME280_pressure;Samples;Min_cycle;Max_cycle;Signal;HPM_P1;HPM_P2
2020/07/28 00:00:32;;;;;;;3.55;3.25;;;;;;;18.74;79.91113;94960.13;;;;
2020/07/28 00:01:36;;;;;;;3.55;3.25;;;;;;;18.74;79.91113;94960.13;;;;
2020/07/28 00:02:37;;;;;;;3.55;3.25;;;;;;;18.74;79.91113;94960.13;;;;
2020/07/28 00:03:38;;;;;;;4.099999;3.15;;;;;;;18.72;80.60449;94948.69;;;;
2020/07/28 00:04:38;;;;;;;4.099999;3.15;;;;;;;18.72;80.60449;94948.69;;;;
2020/07/28 00:05:39;;;;;;;4.099999;3.15;;;;;;;18.72;80.60449;94948.69;;;;
2020/07/28 00:06:40;;;;;;;4.099999;3.15;;;;;;;18.72;80.60449;94948.69;;;;
2020/07/28 00:07:41;;;;;;;4.099999;3.15;;;;;;;18.72;80.60449;94948.69;;;;
2020/07/28 00:08:42;;;;;;;4.099999;3.15;;;;;;;18.72;80.60449;94948.69;;;;
2020/07/28 00:10:16;;;;;;;4.099999;3.15;;;;;;;18.72;80.60449;94948.69;;;;
2020/07/28 00:11:17;;;;;;;4.099999;3.15;;;;;;;18.72;80.60449;94948.69;;;;
2020/07/28 00:12:17;;;;;;;4.099999;3.15;;;;;;;18.72;80.60449;94948.69;;;;
2020/07/28 00:13:18;;;;;;;4.099999;3.15;;;;;;;18.72;80.60449;94948.69;;;;
2020/07/28 00:14:18;;;;;;;3.4;3.1;;;;;;;18.77;81.13379;94948.21;;;;
2020/07/28 00:15:19;;;;;;;3.4;3.1;;;;;;;18.77;81.13379;94948.21;;;;
2020/07/28 00:16:20;;;;;;;3.4;3.1;;;;;;;18.77;81.13379;94948.21;;;;
2020/07/28 00:17:20;;;;;;;3.4;3.1;;;;;;;18.77;81.13379;94948.21;;;;
2020/07/28 00:18:21;;;;;;;3.4;3.1;;;;;;;18.77;81.13379;94948.21;;;;
2020/07/28 00:19:21;;;;;;;3.4;3.1;;;;;;;18.77;81.13379;94948.21;;;;
2020/07/28 00:20:22;;;;;;;3.4;3.1;;;;;;;18.77;81.13379;94948.21;;;;
2020/07/28 00:21:22;;;;;;;3.4;3.1;;;;;;;18.77;81.13379;94948.21;;;;
2020/07/28 00:22:23;;;;;;;3.4;3.1;;;;;;;18.77;81.13379;94948.21;;;;
2020/07/28 00:23:23;;;;;;;3.4;3.1;;;;;;;18.77;81.13379;94948.21;;;;
2020/07/28 00:24:24;;;;;;;3.35;3.05;;;;;;;18.75;81.51074;94943.17;;;;
2020/07/28 00:25:24;;;;;;;3.35;3.05;;;;;;;18.75;81.51074;94943.17;;;;
2020/07/28 00:26:25;;;;;;;3.35;3.05;;;;;;;18.75;81.51074;94943.17;;;;
2020/07/28 00:27:26;;;;;;;3.35;3.05;;;;;;;18.75;81.51074;94943.17;;;;
2020/07/28 00:28:26;;;;;;;3.35;3.05;;;;;;;18.75;81.51074;94943.17;;;;
2020/07/28 00:29:27;;;;;;;3.35;3.05;;;;;;;18.75;81.51074;94943.17;;;;
2020/07/28 00:30:27;;;;;;;3.35;3.05;;;;;;;18.75;81.51074;94943.17;;;;
2020/07/28 00:31:28;;;;;;;3.35;3.05;;;;;;;18.75;81.51074;94943.17;;;;
2020/07/28 00:32:28;;;;;;;3.35;3.05;;;;;;;18.75;81.51074;94943.17;;;;
2020/07/28 00:33:29;;;;;;;3.35;3.05;;;;;;;18.75;81.51074;94943.17;;;;
2020/07/28 00:34:30;;;;;;;3.35;3.05;;;;;;;18.75;81.51074;94943.17;;;;
2020/07/28 00:35:30;;;;;;;3.2;3;;;;;;;18.75;81.88086;94941.39;;;;
2020/07/28 00:36:31;;;;;;;3.2;3;;;;;;;18.75;81.88086;94941.39;;;;
2020/07/28 00:37:31;;;;;;;3.2;3;;;;;;;18.75;81.88086;94941.39;;;;
2020/07/28 00:38:32;;;;;;;3.2;3;;;;;;;18.75;81.88086;94941.39;;;;
2020/07/28 00:39:32;;;;;;;3.2;3;;;;;;;18.75;81.88086;94941.39;;;;
2020/07/28 00:40:33;;;;;;;3.2;3;;;;;;;18.75;81.88086;94941.39;;;;
2020/07/28 00:41:33;;;;;;;3.2;3;;;;;;;18.75;81.88086;94941.39;;;;
2020/07/28 00:42:33;;;;;;;3.2;3;;;;;;;18.75;81.88086;94941.39;;;;
2020/07/28 00:43:34;;;;;;;3.2;3;;;;;;;18.75;81.88086;94941.39;;;;
2020/07/28 00:44:35;;;;;;;3.2;3;;;;;;;18.75;81.88086;94941.39;;;;
2020/07/28 00:45:35;;;;;;;3.950001;3.4;;;;;;;18.63;82.28418;94925.84;;;;
2020/07/28 00:46:36;;;;;;;3.950001;3.4;;;;;;;18.63;82.28418;94925.84;;;;
2020/07/28 00:47:36;;;;;;;3.950001;3.4;;;;;;;18.63;82.28418;94925.84;;;;
2020/07/28 00:48:37;;;;;;;3.950001;3.4;;;;;;;18.63;82.28418;94925.84;;;;
2020/07/28 00:49:37;;;;;;;3.950001;3.4;;;;;;;18.63;82.28418;94925.84;;;;
2020/07/28 00:50:38;;;;;;;3.950001;3.4;;;;;;;18.63;82.28418;94925.84;;;;
2020/07/28 00:51:38;;;;;;;3.950001;3.4;;;;;;;18.63;82.28418;94925.84;;;;
2020/07/28 00:52:39;;;;;;;3.950001;3.4;;;;;;;18.63;82.28418;94925.84;;;;
2020/07/28 00:53:40;;;;;;;3.950001;3.4;;;;;;;18.63;82.28418;94925.84;;;;
2020/07/28 00:54:40;;;;;;;3.950001;3.4;;;;;;;18.63;82.28418;94925.84;;;;
2020/07/28 00:55:41;;;;;;;3.950001;3.4;;;;;;;18.63;82.28418;94925.84;;;;
2020/07/28 00:56:41;;;;;;;4;3.6;;;;;;;18.57;82.73926;94925.78;;;;
2020/07/28 00:57:42;;;;;;;4;3.6;;;;;;;18.57;82.73926;94925.78;;;;
2020/07/28 00:58:42;;;;;;;4;3.6;;;;;;;18.57;82.73926;94925.78;;;;
2020/07/28 00:59:43;;;;;;;4;3.6;;;;;;;18.57;82.73926;94925.78;;;;
2020/07/28 01:00:43;;;;;;;4;3.6;;;;;;;18.57;82.73926;94925.78;;;;
2020/07/28 01:01:44;;;;;;;4;3.6;;;;;;;18.57;82.73926;94925.78;;;;
2020/07/28 01:02:44;;;;;;;4;3.6;;;;;;;18.57;82.73926;94925.78;;;;
2020/07/28 01:03:45;;;;;;;4;3.6;;;;;;;18.57;82.73926;94925.78;;;;
2020/07/28 01:04:45;;;;;;;4;3.6;;;;;;;18.57;82.73926;94925.78;;;;
2020/07/28 01:05:46;;;;;;;4;3.6;;;;;;;18.57;82.73926;94925.78;;;;
2020/07/28 01:06:47;;;;;;;4.5;3.1;;;;;;;18.43;83.28906;94911.21;;;;
2020/07/28 01:07:48;;;;;;;4.5;3.1;;;;;;;18.43;83.28906;94911.21;;;;
2020/07/28 01:08:49;;;;;;;4.5;3.1;;;;;;;18.43;83.28906;94911.21;;;;
2020/07/28 01:09:49;;;;;;;4.5;3.1;;;;;;;18.43;83.28906;94911.21;;;;
2020/07/28 01:10:50;;;;;;;4.5;3.1;;;;;;;18.43;83.28906;94911.21;;;;
2020/07/28 01:11:50;;;;;;;4.5;3.1;;;;;;;18.43;83.28906;94911.21;;;;
2020/07/28 01:12:54;;;;;;;4.5;3.1;;;;;;;18.43;83.28906;94911.21;;;;
2020/07/28 01:13:55;;;;;;;4.5;3.1;;;;;;;18.43;83.28906;94911.21;;;;
2020/07/28 01:14:55;;;;;;;4.5;3.1;;;;;;;18.43;83.28906;94911.21;;;;
2020/07/28 01:15:56;;;;;;;4.5;3.1;;;;;;;18.43;83.28906;94911.21;;;;
2020/07/28 01:16:56;;;;;;;4.5;3.1;;;;;;;18.43;83.28906;94911.21;;;;
2020/07/28 01:17:57;;;;;;;3.95;3.65;;;;;;;18.32;83.60449;94914.18;;;;
2020/07/28 01:18:58;;;;;;;3.95;3.65;;;;;;;18.32;83.60449;94914.18;;;;
2020/07/28 01:19:58;;;;;;;3.95;3.65;;;;;;;18.32;83.60449;94914.18;;;;
2020/07/28 01:20:59;;;;;;;3.95;3.65;;;;;;;18.32;83.60449;94914.18;;;;
2020/07/28 01:21:59;;;;;;;3.95;3.65;;;;;;;18.32;83.60449;94914.18;;;;
2020/07/28 01:22:59;;;;;;;3.95;3.65;;;;;;;18.32;83.60449;94914.18;;;;
2020/07/28 01:24:00;;;;;;;3.95;3.65;;;;;;;18.32;83.60449;94914.18;;;;
2020/07/28 01:25:01;;;;;;;3.95;3.65;;;;;;;18.32;83.60449;94914.18;;;;
2020/07/28 01:26:01;;;;;;;3.95;3.65;;;;;;;18.32;83.60449;94914.18;;;;
2020/07/28 01:27:02;;;;;;;3.95;3.65;;;;;;;18.32;83.60449;94914.18;;;;
2020/07/28 01:28:02;;;;;;;3.8;3.5;;;;;;;18.1;84.06348;94910.22;;;;
2020/07/28 01:29:03;;;;;;;3.8;3.5;;;;;;;18.1;84.06348;94910.22;;;;
2020/07/28 01:30:03;;;;;;;3.8;3.5;;;;;;;18.1;84.06348;94910.22;;;;
2020/07/28 01:31:04;;;;;;;3.8;3.5;;;;;;;18.1;84.06348;94910.22;;;;
2020/07/28 01:32:04;;;;;;;3.8;3.5;;;;;;;18.1;84.06348;94910.22;;;;
2020/07/28 01:33:05;;;;;;;3.8;3.5;;;;;;;18.1;84.06348;94910.22;;;;
2020/07/28 01:34:05;;;;;;;3.8;3.5;;;;;;;18.1;84.06348;94910.22;;;;
2020/07/28 01:36:11;;;;;;;3.8;3.5;;;;;;;18.1;84.06348;94910.22;;;;
2020/07/28 01:37:11;;;;;;;3.8;3.5;;;;;;;18.1;84.06348;94910.22;;;;
2020/07/28 01:38:12;;;;;;;3.8;3.5;;;;;;;18.1;84.06348;94910.22;;;;
2020/07/28 01:39:13;;;;;;;3.9;3.5;;;;;;;17.99;84.61914;94909.53;;;;
2020/07/28 01:40:14;;;;;;;3.9;3.5;;;;;;;17.99;84.61914;94909.53;;;;
2020/07/28 01:41:14;;;;;;;3.9;3.5;;;;;;;17.99;84.61914;94909.53;;;;
2020/07/28 01:42:15;;;;;;;3.9;3.5;;;;;;;17.99;84.61914;94909.53;;;;
2020/07/28 01:43:15;;;;;;;3.9;3.5;;;;;;;17.99;84.61914;94909.53;;;;
2020/07/28 01:44:16;;;;;;;3.9;3.5;;;;;;;17.99;84.61914;94909.53;;;;
2020/07/28 01:45:16;;;;;;;3.9;3.5;;;;;;;17.99;84.61914;94909.53;;;;
2020/07/28 01:46:17;;;;;;;3.9;3.5;;;;;;;17.99;84.61914;94909.53;;;;
2020/07/28 01:47:18;;;;;;;3.9;3.5;;;;;;;17.99;84.61914;94909.53;;;;
2020/07/28 01:48:18;;;;;;;3.9;3.5;;;;;;;17.99;84.61914;94909.53;;;;
2020/07/28 01:49:19;;;;;;;3.65;3.25;;;;;;;17.89;85.01074;94903.79;;;;
2020/07/28 01:50:19;;;;;;;3.65;3.25;;;;;;;17.89;85.01074;94903.79;;;;
2020/07/28 01:51:20;;;;;;;3.65;3.25;;;;;;;17.89;85.01074;94903.79;;;;
2020/07/28 01:52:20;;;;;;;3.65;3.25;;;;;;;17.89;85.01074;94903.79;;;;
2020/07/28 01:53:21;;;;;;;3.65;3.25;;;;;;;17.89;85.01074;94903.79;;;;
2020/07/28 01:54:21;;;;;;;3.65;3.25;;;;;;;17.89;85.01074;94903.79;;;;
2020/07/28 01:55:22;;;;;;;3.65;3.25;;;;;;;17.89;85.01074;94903.79;;;;
2020/07/28 01:56:22;;;;;;;3.65;3.25;;;;;;;17.89;85.01074;94903.79;;;;
2020/07/28 01:57:23;;;;;;;3.65;3.25;;;;;;;17.89;85.01074;94903.79;;;;
2020/07/28 01:58:23;;;;;;;3.65;3.25;;;;;;;17.89;85.01074;94903.79;;;;
2020/07/28 01:59:24;;;;;;;3.65;3.25;;;;;;;17.89;85.01074;94903.79;;;;
2020/07/28 02:00:24;;;;;;;3.55;3.25;;;;;;;17.85;85.01465;94905.47;;;;
2020/07/28 02:01:25;;;;;;;3.55;3.25;;;;;;;17.85;85.01465;94905.47;;;;
2020/07/28 02:02:25;;;;;;;3.55;3.25;;;;;;;17.85;85.01465;94905.47;;;;
2020/07/28 02:03:26;;;;;;;3.55;3.25;;;;;;;17.85;85.01465;94905.47;;;;
2020/07/28 02:04:26;;;;;;;3.55;3.25;;;;;;;17.85;85.01465;94905.47;;;;
2020/07/28 02:05:27;;;;;;;3.55;3.25;;;;;;;17.85;85.01465;94905.47;;;;
2020/07/28 02:06:27;;;;;;;3.55;3.25;;;;;;;17.85;85.01465;94905.47;;;;
2020/07/28 02:07:27;;;;;;;3.55;3.25;;;;;;;17.85;85.01465;94905.47;;;;
2020/07/28 02:08:28;;;;;;;3.55;3.25;;;;;;;17.85;85.01465;94905.47;;;;
2020/07/28 02:09:28;;;;;;;3.55;3.25;;;;;;;17.85;85.01465;94905.47;;;;
2020/07/28 02:10:29;;;;;;;3.75;3.45;;;;;;;17.71;85.33691;94903.99;;;;
2020/07/28 02:11:29;;;;;;;3.75;3.45;;;;;;;17.71;85.33691;94903.99;;;;
2020/07/28 02:12:30;;;;;;;3.75;3.45;;;;;;;17.71;85.33691;94903.99;;;;
2020/07/28 02:13:30;;;;;;;3.75;3.45;;;;;;;17.71;85.33691;94903.99;;;;
2020/07/28 02:14:31;;;;;;;3.75;3.45;;;;;;;17.71;85.33691;94903.99;;;;
2020/07/28 02:15:31;;;;;;;3.75;3.45;;;;;;;17.71;85.33691;94903.99;;;;
2020/07/28 02:16:32;;;;;;;3.75;3.45;;;;;;;17.71;85.33691;94903.99;;;;
2020/07/28 02:17:32;;;;;;;3.75;3.45;;;;;;;17.71;85.33691;94903.99;;;;
2020/07/28 02:18:33;;;;;;;3.75;3.45;;;;;;;17.71;85.33691;94903.99;;;;
2020/07/28 02:19:33;;;;;;;3.75;3.45;;;;;;;17.71;85.33691;94903.99;;;;
2020/07/28 02:20:34;;;;;;;3.75;3.45;;;;;;;17.71;85.33691;94903.99;;;;
2020/07/28 02:21:34;;;;;;;4.6;3.9;;;;;;;17.71;85.94141;94909.99;;;;
2020/07/28 02:22:34;;;;;;;4.6;3.9;;;;;;;17.71;85.94141;94909.99;;;;
2020/07/28 02:23:35;;;;;;;4.6;3.9;;;;;;;17.71;85.94141;94909.99;;;;
2020/07/28 02:24:35;;;;;;;4.6;3.9;;;;;;;17.71;85.94141;94909.99;;;;
2020/07/28 02:25:36;;;;;;;4.6;3.9;;;;;;;17.71;85.94141;94909.99;;;;
2020/07/28 02:26:37;;;;;;;4.6;3.9;;;;;;;17.71;85.94141;94909.99;;;;
2020/07/28 02:31:50;;;;;;;4.1;3.8;;;;;;;17.65;86.2666;94909.77;;;;
2020/07/28 02:32:51;;;;;;;4.1;3.8;;;;;;;17.65;86.2666;94909.77;;;;
2020/07/28 02:33:51;;;;;;;4.1;3.8;;;;;;;17.65;86.2666;94909.77;;;;
2020/07/28 02:34:52;;;;;;;4.1;3.8;;;;;;;17.65;86.2666;94909.77;;;;
2020/07/28 02:35:52;;;;;;;4.1;3.8;;;;;;;17.65;86.2666;94909.77;;;;
2020/07/28 02:36:52;;;;;;;4.1;3.8;;;;;;;17.65;86.2666;94909.77;;;;
2020/07/28 02:37:53;;;;;;;4.1;3.8;;;;;;;17.65;86.2666;94909.77;;;;
2020/07/28 02:38:54;;;;;;;4.1;3.8;;;;;;;17.65;86.2666;94909.77;;;;
2020/07/28 02:39:54;;;;;;;4.1;3.8;;;;;;;17.65;86.2666;94909.77;;;;
2020/07/28 02:40:54;;;;;;;4.1;3.8;;;;;;;17.65;86.2666;94909.77;;;;
2020/07/28 02:41:55;;;;;;;4.1;3.8;;;;;;;17.65;86.2666;94909.77;;;;
2020/07/28 02:42:55;;;;;;;4.6;4.2;;;;;;;17.65;86.58105;94908.4;;;;
2020/07/28 02:43:56;;;;;;;4.6;4.2;;;;;;;17.65;86.58105;94908.4;;;;
2020/07/28 02:44:56;;;;;;;4.6;4.2;;;;;;;17.65;86.58105;94908.4;;;;
2020/07/28 02:45:57;;;;;;;4.6;4.2;;;;;;;17.65;86.58105;94908.4;;;;
2020/07/28 02:46:57;;;;;;;4.6;4.2;;;;;;;17.65;86.58105;94908.4;;;;
2020/07/28 02:47:58;;;;;;;4.6;4.2;;;;;;;17.65;86.58105;94908.4;;;;
2020/07/28 02:48:58;;;;;;;4.6;4.2;;;;;;;17.65;86.58105;94908.4;;;;
2020/07/28 02:49:59;;;;;;;4.6;4.2;;;;;;;17.65;86.58105;94908.4;;;;
2020/07/28 02:50:59;;;;;;;4.6;4.2;;;;;;;17.65;86.58105;94908.4;;;;
2020/07/28 02:52:00;;;;;;;4.6;4.2;;;;;;;17.65;86.58105;94908.4;;;;
2020/07/28 02:53:00;;;;;;;4.2;3.900001;;;;;;;17.52;86.94531;94920.03;;;;
2020/07/28 02:54:01;;;;;;;4.2;3.900001;;;;;;;17.52;86.94531;94920.03;;;;
2020/07/28 02:55:01;;;;;;;4.2;3.900001;;;;;;;17.52;86.94531;94920.03;;;;
2020/07/28 02:56:02;;;;;;;4.2;3.900001;;;;;;;17.52;86.94531;94920.03;;;;
2020/07/28 02:57:02;;;;;;;4.2;3.900001;;;;;;;17.52;86.94531;94920.03;;;;
2020/07/28 02:58:03;;;;;;;4.2;3.900001;;;;;;;17.52;86.94531;94920.03;;;;
2020/07/28 02:59:03;;;;;;;4.2;3.900001;;;;;;;17.52;86.94531;94920.03;;;;
2020/07/28 03:00:04;;;;;;;4.2;3.900001;;;;;;;17.52;86.94531;94920.03;;;;
2020/07/28 03:01:04;;;;;;;4.2;3.900001;;;;;;;17.52;86.94531;94920.03;;;;
2020/07/28 03:02:05;;;;;;;4.2;3.900001;;;;;;;17.52;86.94531;94920.03;;;;
2020/07/28 03:03:06;;;;;;;4.2;3.900001;;;;;;;17.52;86.94531;94920.03;;;;
2020/07/28 03:04:38;;;;;;;4.45;4.05;;;;;;;17.44;87.49219;94921.56;;;;
2020/07/28 03:05:39;;;;;;;4.45;4.05;;;;;;;17.44;87.49219;94921.56;;;;
2020/07/28 03:06:39;;;;;;;4.45;4.05;;;;;;;17.44;87.49219;94921.56;;;;
2020/07/28 03:07:39;;;;;;;4.45;4.05;;;;;;;17.44;87.49219;94921.56;;;;
2020/07/28 03:08:45;;;;;;;4.45;4.05;;;;;;;17.44;87.49219;94921.56;;;;
2020/07/28 03:09:46;;;;;;;4.45;4.05;;;;;;;17.44;87.49219;94921.56;;;;
2020/07/28 03:10:46;;;;;;;4.45;4.05;;;;;;;17.44;87.49219;94921.56;;;;
2020/07/28 03:11:47;;;;;;;4.45;4.05;;;;;;;17.44;87.49219;94921.56;;;;
2020/07/28 03:12:47;;;;;;;4.45;4.05;;;;;;;17.44;87.49219;94921.56;;;;
2020/07/28 03:13:48;;;;;;;4.3;4;;;;;;;17.35;87.95117;94926.42;;;;
2020/07/28 03:14:48;;;;;;;4.3;4;;;;;;;17.35;87.95117;94926.42;;;;
2020/07/28 03:15:49;;;;;;;4.3;4;;;;;;;17.35;87.95117;94926.42;;;;
2020/07/28 03:16:49;;;;;;;4.3;4;;;;;;;17.35;87.95117;94926.42;;;;
2020/07/28 03:18:55;;;;;;;4.3;4;;;;;;;17.35;87.95117;94926.42;;;;
2020/07/28 03:19:55;;;;;;;4.3;4;;;;;;;17.35;87.95117;94926.42;;;;
2020/07/28 03:20:56;;;;;;;4.3;4;;;;;;;17.35;87.95117;94926.42;;;;
2020/07/28 03:21:56;;;;;;;4.3;4;;;;;;;17.35;87.95117;94926.42;;;;
2020/07/28 03:22:57;;;;;;;4.3;4;;;;;;;17.35;87.95117;94926.42;;;;
2020/07/28 03:23:57;;;;;;;4.3;4;;;;;;;17.35;87.95117;94926.42;;;;
2020/07/28 03:24:58;;;;;;;4.849999;4.45;;;;;;;17.27;88.59473;94930.16;;;;
2020/07/28 03:25:58;;;;;;;4.849999;4.45;;;;;;;17.27;88.59473;94930.16;;;;
2020/07/28 03:26:59;;;;;;;4.849999;4.45;;;;;;;17.27;88.59473;94930.16;;;;
2020/07/28 03:27:59;;;;;;;4.849999;4.45;;;;;;;17.27;88.59473;94930.16;;;;
2020/07/28 03:29:00;;;;;;;4.849999;4.45;;;;;;;17.27;88.59473;94930.16;;;;
2020/07/28 03:30:01;;;;;;;4.849999;4.45;;;;;;;17.27;88.59473;94930.16;;;;
2020/07/28 03:31:01;;;;;;;4.849999;4.45;;;;;;;17.27;88.59473;94930.16;;;;
2020/07/28 03:32:02;;;;;;;4.849999;4.45;;;;;;;17.27;88.59473;94930.16;;;;
2020/07/28 03:33:02;;;;;;;4.849999;4.45;;;;;;;17.27;88.59473;94930.16;;;;
2020/07/28 03:34:03;;;;;;;4.849999;4.45;;;;;;;17.27;88.59473;94930.16;;;;
2020/07/28 03:35:03;;;;;;;4.65;4.35;;;;;;;17.11;89.125;94936.84;;;;
2020/07/28 03:36:03;;;;;;;4.65;4.35;;;;;;;17.11;89.125;94936.84;;;;
2020/07/28 03:37:04;;;;;;;4.65;4.35;;;;;;;17.11;89.125;94936.84;;;;
2020/07/28 03:38:05;;;;;;;4.65;4.35;;;;;;;17.11;89.125;94936.84;;;;
2020/07/28 03:39:05;;;;;;;4.65;4.35;;;;;;;17.11;89.125;94936.84;;;;
2020/07/28 03:40:05;;;;;;;4.65;4.35;;;;;;;17.11;89.125;94936.84;;;;
2020/07/28 03:41:07;;;;;;;4.65;4.35;;;;;;;17.11;89.125;94936.84;;;;
2020/07/28 03:42:08;;;;;;;4.65;4.35;;;;;;;17.11;89.125;94936.84;;;;
2020/07/28 03:43:08;;;;;;;4.65;4.35;;;;;;;17.11;89.125;94936.84;;;;
2020/07/28 03:44:09;;;;;;;4.65;4.35;;;;;;;17.11;89.125;94936.84;;;;
2020/07/28 03:45:10;;;;;;;4.65;4.35;;;;;;;17.11;89.125;94936.84;;;;
2020/07/28 03:46:10;;;;;;;4.55;4.25;;;;;;;17.09;89.6084;94946.84;;;;
2020/07/28 03:47:11;;;;;;;4.55;4.25;;;;;;;17.09;89.6084;94946.84;;;;
2020/07/28 03:48:11;;;;;;;4.55;4.25;;;;;;;17.09;89.6084;94946.84;;;;
2020/07/28 03:49:12;;;;;;;4.55;4.25;;;;;;;17.09;89.6084;94946.84;;;;
2020/07/28 03:50:12;;;;;;;4.55;4.25;;;;;;;17.09;89.6084;94946.84;;;;
2020/07/28 03:51:13;;;;;;;4.55;4.25;;;;;;;17.09;89.6084;94946.84;;;;
2020/07/28 03:52:13;;;;;;;4.55;4.25;;;;;;;17.09;89.6084;94946.84;;;;
2020/07/28 03:53:14;;;;;;;4.55;4.25;;;;;;;17.09;89.6084;94946.84;;;;
2020/07/28 03:54:14;;;;;;;4.55;4.25;;;;;;;17.09;89.6084;94946.84;;;;
2020/07/28 03:55:15;;;;;;;4.55;4.25;;;;;;;17.09;89.6084;94946.84;;;;
2020/07/28 03:56:15;;;;;;;5.05;4.6;;;;;;;17.02;89.95117;94929.83;;;;
2020/07/28 03:57:16;;;;;;;5.05;4.6;;;;;;;17.02;89.95117;94929.83;;;;
2020/07/28 03:58:17;;;;;;;5.05;4.6;;;;;;;17.02;89.95117;94929.83;;;;
2020/07/28 03:59:17;;;;;;;5.05;4.6;;;;;;;17.02;89.95117;94929.83;;;;
2020/07/28 04:00:18;;;;;;;5.05;4.6;;;;;;;17.02;89.95117;94929.83;;;;
2020/07/28 04:01:19;;;;;;;5.05;4.6;;;;;;;17.02;89.95117;94929.83;;;;
2020/07/28 04:02:19;;;;;;;5.05;4.6;;;;;;;17.02;89.95117;94929.83;;;;
2020/07/28 04:03:20;;;;;;;5.05;4.6;;;;;;;17.02;89.95117;94929.83;;;;
2020/07/28 04:04:20;;;;;;;5.05;4.6;;;;;;;17.02;89.95117;94929.83;;;;
2020/07/28 04:05:21;;;;;;;5.05;4.6;;;;;;;17.02;89.95117;94929.83;;;;
2020/07/28 04:06:21;;;;;;;5.05;4.6;;;;;;;17.02;89.95117;94929.83;;;;
2020/07/28 04:07:22;;;;;;;4.849999;4.45;;;;;;;17.1;90.28027;94944.36;;;;
2020/07/28 04:08:22;;;;;;;4.849999;4.45;;;;;;;17.1;90.28027;94944.36;;;;
2020/07/28 04:09:23;;;;;;;4.849999;4.45;;;;;;;17.1;90.28027;94944.36;;;;
2020/07/28 04:10:23;;;;;;;4.849999;4.45;;;;;;;17.1;90.28027;94944.36;;;;
2020/07/28 04:11:35;;;;;;;4.849999;4.45;;;;;;;17.1;90.28027;94944.36;;;;
2020/07/28 04:12:36;;;;;;;4.849999;4.45;;;;;;;17.1;90.28027;94944.36;;;;
2020/07/28 04:13:36;;;;;;;4.849999;4.45;;;;;;;17.1;90.28027;94944.36;;;;
2020/07/28 04:14:37;;;;;;;4.849999;4.45;;;;;;;17.1;90.28027;94944.36;;;;
2020/07/28 04:15:37;;;;;;;4.849999;4.45;;;;;;;17.1;90.28027;94944.36;;;;
2020/07/28 04:16:38;;;;;;;4.849999;4.45;;;;;;;17.1;90.28027;94944.36;;;;
2020/07/28 04:17:38;;;;;;;4.85;4.5;;;;;;;17.2;90.41992;94937.86;;;;
2020/07/28 04:18:39;;;;;;;4.85;4.5;;;;;;;17.2;90.41992;94937.86;;;;
2020/07/28 04:19:39;;;;;;;4.85;4.5;;;;;;;17.2;90.41992;94937.86;;;;
2020/07/28 04:20:40;;;;;;;4.85;4.5;;;;;;;17.2;90.41992;94937.86;;;;
2020/07/28 04:21:40;;;;;;;4.85;4.5;;;;;;;17.2;90.41992;94937.86;;;;
2020/07/28 04:22:41;;;;;;;4.85;4.5;;;;;;;17.2;90.41992;94937.86;;;;
2020/07/28 04:23:42;;;;;;;4.85;4.5;;;;;;;17.2;90.41992;94937.86;;;;
2020/07/28 04:24:43;;;;;;;4.85;4.5;;;;;;;17.2;90.41992;94937.86;;;;
2020/07/28 04:25:43;;;;;;;4.85;4.5;;;;;;;17.2;90.41992;94937.86;;;;
2020/07/28 04:26:44;;;;;;;4.85;4.5;;;;;;;17.2;90.41992;94937.86;;;;
2020/07/28 04:27:44;;;;;;;4.85;4.5;;;;;;;17.2;90.41992;94937.86;;;;
2020/07/28 04:28:45;;;;;;;4.5;4.100001;;;;;;;17.51;90.29785;94952.09;;;;
2020/07/28 04:29:45;;;;;;;4.5;4.100001;;;;;;;17.51;90.29785;94952.09;;;;
2020/07/28 04:30:46;;;;;;;4.5;4.100001;;;;;;;17.51;90.29785;94952.09;;;;
2020/07/28 04:31:46;;;;;;;4.5;4.100001;;;;;;;17.51;90.29785;94952.09;;;;
2020/07/28 04:32:47;;;;;;;4.5;4.100001;;;;;;;17.51;90.29785;94952.09;;;;
2020/07/28 04:33:48;;;;;;;4.5;4.100001;;;;;;;17.51;90.29785;94952.09;;;;
2020/07/28 04:34:50;;;;;;;4.5;4.100001;;;;;;;17.51;90.29785;94952.09;;;;
2020/07/28 04:35:51;;;;;;;4.5;4.100001;;;;;;;17.51;90.29785;94952.09;;;;
2020/07/28 04:36:51;;;;;;;4.5;4.100001;;;;;;;17.51;90.29785;94952.09;;;;
2020/07/28 04:37:52;;;;;;;4.5;4.100001;;;;;;;17.51;90.29785;94952.09;;;;
2020/07/28 04:38:52;;;;;;;4.35;4.050001;;;;;;;17.79;89.72852;94961.65;;;;
2020/07/28 04:39:54;;;;;;;4.35;4.050001;;;;;;;17.79;89.72852;94961.65;;;;
2020/07/28 04:40:55;;;;;;;4.35;4.050001;;;;;;;17.79;89.72852;94961.65;;;;
2020/07/28 04:41:56;;;;;;;4.35;4.050001;;;;;;;17.79;89.72852;94961.65;;;;
2020/07/28 04:42:56;;;;;;;4.35;4.050001;;;;;;;17.79;89.72852;94961.65;;;;
2020/07/28 04:43:57;;;;;;;4.35;4.050001;;;;;;;17.79;89.72852;94961.65;;;;
2020/07/28 04:44:57;;;;;;;4.35;4.050001;;;;;;;17.79;89.72852;94961.65;;;;
2020/07/28 04:45:58;;;;;;;4.35;4.050001;;;;;;;17.79;89.72852;94961.65;;;;
2020/07/28 04:46:58;;;;;;;4.35;4.050001;;;;;;;17.79;89.72852;94961.65;;;;
2020/07/28 04:47:59;;;;;;;4.35;4.050001;;;;;;;17.79;89.72852;94961.65;;;;
2020/07/28 04:48:59;;;;;;;4.35;4.050001;;;;;;;17.79;89.72852;94961.65;;;;
2020/07/28 04:50:00;;;;;;;4.749999;4.25;;;;;;;18.11;89.2168;94970.62;;;;
2020/07/28 04:51:00;;;;;;;4.749999;4.25;;;;;;;18.11;89.2168;94970.62;;;;
2020/07/28 04:52:01;;;;;;;4.749999;4.25;;;;;;;18.11;89.2168;94970.62;;;;
2020/07/28 04:53:02;;;;;;;4.749999;4.25;;;;;;;18.11;89.2168;94970.62;;;;
2020/07/28 04:54:02;;;;;;;4.749999;4.25;;;;;;;18.11;89.2168;94970.62;;;;
2020/07/28 04:55:03;;;;;;;4.749999;4.25;;;;;;;18.11;89.2168;94970.62;;;;
2020/07/28 04:56:03;;;;;;;4.749999;4.25;;;;;;;18.11;89.2168;94970.62;;;;
2020/07/28 04:57:04;;;;;;;4.749999;4.25;;;;;;;18.11;89.2168;94970.62;;;;
2020/07/28 04:58:05;;;;;;;4.749999;4.25;;;;;;;18.11;89.2168;94970.62;;;;
2020/07/28 04:59:05;;;;;;;4.749999;4.25;;;;;;;18.11;89.2168;94970.62;;;;
2020/07/28 05:00:06;;;;;;;4.85;4.3;;;;;;;18.31;89.03125;94971.76;;;;
2020/07/28 05:01:06;;;;;;;4.85;4.3;;;;;;;18.31;89.03125;94971.76;;;;
2020/07/28 05:02:07;;;;;;;4.85;4.3;;;;;;;18.31;89.03125;94971.76;;;;
2020/07/28 05:03:08;;;;;;;4.85;4.3;;;;;;;18.31;89.03125;94971.76;;;;
2020/07/28 05:04:08;;;;;;;4.85;4.3;;;;;;;18.31;89.03125;94971.76;;;;
2020/07/28 05:05:09;;;;;;;4.85;4.3;;;;;;;18.31;89.03125;94971.76;;;;
2020/07/28 05:06:10;;;;;;;4.85;4.3;;;;;;;18.31;89.03125;94971.76;;;;
2020/07/28 05:07:12;;;;;;;4.85;4.3;;;;;;;18.31;89.03125;94971.76;;;;
2020/07/28 05:08:12;;;;;;;4.85;4.3;;;;;;;18.31;89.03125;94971.76;;;;
2020/07/28 05:09:13;;;;;;;4.85;4.3;;;;;;;18.31;89.03125;94971.76;;;;
2020/07/28 05:10:14;;;;;;;4.85;4.3;;;;;;;18.31;89.03125;94971.76;;;;
2020/07/28 05:11:14;;;;;;;4.2;3.8;;;;;;;18.68;88.69141;94975;;;;
2020/07/28 05:12:15;;;;;;;4.2;3.8;;;;;;;18.68;88.69141;94975;;;;
2020/07/28 05:13:15;;;;;;;4.2;3.8;;;;;;;18.68;88.69141;94975;;;;
2020/07/28 05:14:16;;;;;;;4.2;3.8;;;;;;;18.68;88.69141;94975;;;;
2020/07/28 05:15:16;;;;;;;4.2;3.8;;;;;;;18.68;88.69141;94975;;;;
2020/07/28 05:16:17;;;;;;;4.2;3.8;;;;;;;18.68;88.69141;94975;;;;
2020/07/28 05:17:17;;;;;;;4.2;3.8;;;;;;;18.68;88.69141;94975;;;;
2020/07/28 05:18:18;;;;;;;4.2;3.8;;;;;;;18.68;88.69141;94975;;;;
2020/07/28 05:19:18;;;;;;;4.2;3.8;;;;;;;18.68;88.69141;94975;;;;
2020/07/28 05:20:19;;;;;;;4.2;3.8;;;;;;;18.68;88.69141;94975;;;;
2020/07/28 05:21:19;;;;;;;3.85;3.45;;;;;;;19.18;87.75879;94979.35;;;;
2020/07/28 05:22:20;;;;;;;3.85;3.45;;;;;;;19.18;87.75879;94979.35;;;;
2020/07/28 05:23:20;;;;;;;3.85;3.45;;;;;;;19.18;87.75879;94979.35;;;;
2020/07/28 05:24:21;;;;;;;3.85;3.45;;;;;;;19.18;87.75879;94979.35;;;;
2020/07/28 05:25:21;;;;;;;3.85;3.45;;;;;;;19.18;87.75879;94979.35;;;;
2020/07/28 05:26:22;;;;;;;3.85;3.45;;;;;;;19.18;87.75879;94979.35;;;;
2020/07/28 05:27:22;;;;;;;3.85;3.45;;;;;;;19.18;87.75879;94979.35;;;;
2020/07/28 05:28:23;;;;;;;3.85;3.45;;;;;;;19.18;87.75879;94979.35;;;;
2020/07/28 05:29:23;;;;;;;3.85;3.45;;;;;;;19.18;87.75879;94979.35;;;;
2020/07/28 05:30:24;;;;;;;3.85;3.45;;;;;;;19.18;87.75879;94979.35;;;;
2020/07/28 05:31:24;;;;;;;3.85;3.45;;;;;;;19.18;87.75879;94979.35;;;;
2020/07/28 05:32:25;;;;;;;4.25;3.2;;;;;;;19.86;86.51953;94986.47;;;;
2020/07/28 05:33:25;;;;;;;4.25;3.2;;;;;;;19.86;86.51953;94986.47;;;;
2020/07/28 05:34:26;;;;;;;4.25;3.2;;;;;;;19.86;86.51953;94986.47;;;;
2020/07/28 05:35:26;;;;;;;4.25;3.2;;;;;;;19.86;86.51953;94986.47;;;;
2020/07/28 05:36:27;;;;;;;4.25;3.2;;;;;;;19.86;86.51953;94986.47;;;;
2020/07/28 05:37:27;;;;;;;4.25;3.2;;;;;;;19.86;86.51953;94986.47;;;;
2020/07/28 05:38:28;;;;;;;4.25;3.2;;;;;;;19.86;86.51953;94986.47;;;;
2020/07/28 05:39:28;;;;;;;4.25;3.2;;;;;;;19.86;86.51953;94986.47;;;;
2020/07/28 05:40:29;;;;;;;4.25;3.2;;;;;;;19.86;86.51953;94986.47;;;;
2020/07/28 05:41:29;;;;;;;4.25;3.2;;;;;;;19.86;86.51953;94986.47;;;;
2020/07/28 05:42:30;;;;;;;4.8;3.45;;;;;;;20.62;84.81152;94991.91;;;;
2020/07/28 05:43:30;;;;;;;4.8;3.45;;;;;;;20.62;84.81152;94991.91;;;;
2020/07/28 05:44:31;;;;;;;4.8;3.45;;;;;;;20.62;84.81152;94991.91;;;;
2020/07/28 05:45:31;;;;;;;4.8;3.45;;;;;;;20.62;84.81152;94991.91;;;;
2020/07/28 05:46:32;;;;;;;4.8;3.45;;;;;;;20.62;84.81152;94991.91;;;;
2020/07/28 05:47:32;;;;;;;4.8;3.45;;;;;;;20.62;84.81152;94991.91;;;;
2020/07/28 05:48:33;;;;;;;4.8;3.45;;;;;;;20.62;84.81152;94991.91;;;;
2020/07/28 05:49:33;;;;;;;4.8;3.45;;;;;;;20.62;84.81152;94991.91;;;;
2020/07/28 05:50:34;;;;;;;4.8;3.45;;;;;;;20.62;84.81152;94991.91;;;;
2020/07/28 05:51:34;;;;;;;4.8;3.45;;;;;;;20.62;84.81152;94991.91;;;;
2020/07/28 05:52:35;;;;;;;4.8;3.45;;;;;;;20.62;84.81152;94991.91;;;;